Audrey — PD9331 — position and weather

sailwx.info

Track history (hours):
 
Tides and Currents Weather Stations Pressure Air Temp Water Temp Dewpoint Dewpoint Depression Visibility Wind Speed Wind Dir Waves Ship Positions

Audrey

Last reported at 2016-Jun-26 00:33 UTC. Time now 2016-Jun-26 01:04 UTC.
Position N 51°55' E 004°30'.

Length 85 m; draft 2.4 m.

Type: Wing in ground effect craft. MMSI: 244660106.

Date/timePositionNaut miles runAvg speedWind from/ knotsBaromVisibWave heightAir tempDewpointWater temp
2016-Jun-26 00:33N 51°55' E 004°30'0 0.0
2016-Jun-25 23:33N 51°55' E 004°30'0 0.0
2016-Jun-25 22:32N 51°55' E 004°30'0 0.0
2016-Jun-25 21:33N 51°55' E 004°30'0 0.0
2016-Jun-25 20:33N 51°55' E 004°30'0 0.0
2016-Jun-25 19:33N 51°55' E 004°30'0 0.0
2016-Jun-25 18:33N 51°55' E 004°30'0 0.0
2016-Jun-25 17:33N 51°55' E 004°30'0 0.0
2016-Jun-25 16:33N 51°55' E 004°30'0 0.0
2016-Jun-25 15:33N 51°55' E 004°30'0 0.0
2016-Jun-25 14:32N 51°55' E 004°30'0 0.0
2016-Jun-25 13:33N 51°55' E 004°30'0 0.0
2016-Jun-25 12:32N 51°55' E 004°30'0 0.0
2016-Jun-25 11:33N 51°55' E 004°30'0 0.0
2016-Jun-25 10:33N 51°55' E 004°30'0 0.0
2016-Jun-25 09:33N 51°55' E 004°30'0 0.0
2016-Jun-25 08:32N 51°55' E 004°30'0 0.0
2016-Jun-25 07:33N 51°55' E 004°30'0 0.0
2016-Jun-25 06:32N 51°55' E 004°30'2 2.2
2016-Jun-25 05:33N 51°54' E 004°27'6 6.2
2016-Jun-25 04:33N 51°52' E 004°18'8 8.0
2016-Jun-25 03:33N 51°57' E 004°07'1 0.8
2016-Jun-25 02:33N 51°57' E 004°07'0 0.0
2016-Jun-25 01:33N 51°57' E 004°07'0 0.0
2016-Jun-25 00:33N 51°57' E 004°07'0 0.0
2016-Jun-24 23:33N 51°57' E 004°07'0 0.0
2016-Jun-24 22:33N 51°57' E 004°07'0 0.0
2016-Jun-24 21:33N 51°57' E 004°07'0 0.0
2016-Jun-24 20:33N 51°57' E 004°07'0 0.0
2016-Jun-24 19:33N 51°57' E 004°07'0 0.0
2016-Jun-24 18:33N 51°57' E 004°07'0 0.0
2016-Jun-24 17:33N 51°57' E 004°07'0 0.0
2016-Jun-24 16:33N 51°57' E 004°07'0 0.0
2016-Jun-24 15:33N 51°57' E 004°07'0 0.0
2016-Jun-24 14:33N 51°57' E 004°07'3 2.7
2016-Jun-24 13:33N 51°55' E 004°10'6 6.1
2016-Jun-24 12:33N 51°54' E 004°20'7 6.4
2016-Jun-24 11:32N 51°55' E 004°30'0 0.0
2016-Jun-24 10:33N 51°55' E 004°30'0 0.0
2016-Jun-24 09:33N 51°55' E 004°30'0 0.0
2016-Jun-24 08:32N 51°55' E 004°30'0 0.0
2016-Jun-24 07:32N 51°55' E 004°30'0 0.0
2016-Jun-24 04:33N 51°55' E 004°30'0 0.0
2016-Jun-24 03:32N 51°55' E 004°30'0 0.0
2016-Jun-24 02:33N 51°55' E 004°30'0 0.0
2016-Jun-24 01:32N 51°55' E 004°30'0 0.0
2016-Jun-24 00:32N 51°55' E 004°30'0 0.0
2016-Jun-23 23:32N 51°55' E 004°30'0 0.0
2016-Jun-23 22:32N 51°55' E 004°30'0 0.0
2016-Jun-23 21:33N 51°55' E 004°30'0 0.0
2016-Jun-23 20:29N 51°55' E 004°30'0 0.0
2016-Jun-23 19:32N 51°55' E 004°30'0 0.0
2016-Jun-23 18:32N 51°55' E 004°30'0 0.0
2016-Jun-23 17:33N 51°55' E 004°30'0 0.0
2016-Jun-23 16:33N 51°55' E 004°30'0 0.0
2016-Jun-23 15:33N 51°55' E 004°30'2 2.0
2016-Jun-23 14:33N 51°54' E 004°33'7 6.7
2016-Jun-23 13:33N 51°49' E 004°40'0 0.0
2016-Jun-23 12:34N 51°49' E 004°40'0 0.0
2016-Jun-23 11:34N 51°49' E 004°40'0 0.0
2016-Jun-23 10:34N 51°49' E 004°40'4 4.4
2016-Jun-23 09:33N 51°53' E 004°37'9 9.3
2016-Jun-23 08:33N 51°56' E 004°52'8 8.1
2016-Jun-23 07:33N 51°59' E 005°04'11 5.6
2016-Jun-23 05:34N 52°10' E 004°60'8 7.8
2016-Jun-23 04:34N 52°18' E 005°01'7 6.8
2016-Jun-23 03:34N 52°23' E 004°54'2 1.5
2016-Jun-23 02:33N 52°24' E 004°52'0 0.0
2016-Jun-23 01:33N 52°24' E 004°52'0 0.0
2016-Jun-23 00:33N 52°24' E 004°52'0 0.0
2016-Jun-22 23:33N 52°24' E 004°52'0 0.0
2016-Jun-22 22:33N 52°24' E 004°52'0 0.0
2016-Jun-22 21:33N 52°24' E 004°52'0 0.0
2016-Jun-22 20:33N 52°24' E 004°52'0 0.0
2016-Jun-22 19:33N 52°24' E 004°52'0 0.4
2016-Jun-22 18:33N 52°24' E 004°52'0 0.0
2016-Jun-22 17:33N 52°24' E 004°52'0 0.0
2016-Jun-22 16:33N 52°24' E 004°52'0 0.0
2016-Jun-22 15:33N 52°24' E 004°52'0 0.0
2016-Jun-22 14:33N 52°24' E 004°52'0 0.4
2016-Jun-22 13:33N 52°24' E 004°52'0 0.4
2016-Jun-22 12:33N 52°24' E 004°52'0 0.0
2016-Jun-22 11:33N 52°24' E 004°52'0 0.0
2016-Jun-22 10:33N 52°24' E 004°52'0 0.0
2016-Jun-22 09:33N 52°24' E 004°52'0 0.4
2016-Jun-22 08:33N 52°24' E 004°52'0 0.0
2016-Jun-22 07:33N 52°24' E 004°52'0 0.0
2016-Jun-22 06:33N 52°24' E 004°52'0 0.0
2016-Jun-22 05:33N 52°24' E 004°52'0 0.0
2016-Jun-22 04:33N 52°24' E 004°52'0 0.0
2016-Jun-22 03:33N 52°24' E 004°52'0 0.0
2016-Jun-22 02:33N 52°24' E 004°52'0 0.0
2016-Jun-22 01:33N 52°24' E 004°52'0 0.0
2016-Jun-22 00:33N 52°24' E 004°52'0 0.0
2016-Jun-21 23:33N 52°24' E 004°52'0 0.0
2016-Jun-21 22:33N 52°24' E 004°52'0 0.0
2016-Jun-21 21:33N 52°24' E 004°52'0 0.0
2016-Jun-21 20:33N 52°24' E 004°52'0 0.0
2016-Jun-21 19:33N 52°24' E 004°52'0 0.0
2016-Jun-21 18:33N 52°24' E 004°52'0 0.0
2016-Jun-21 17:33N 52°24' E 004°52'0 0.0
2016-Jun-21 16:33N 52°24' E 004°52'0 0.0
2016-Jun-21 15:33N 52°24' E 004°52'0 0.0
2016-Jun-21 14:33N 52°24' E 004°52'0 0.0
2016-Jun-21 13:33N 52°24' E 004°52'0 0.0
2016-Jun-21 12:33N 52°24' E 004°52'0 0.0
2016-Jun-21 11:33N 52°24' E 004°52'0 0.0
2016-Jun-21 10:33N 52°24' E 004°52'0 0.0
2016-Jun-21 09:33N 52°24' E 004°52'0 0.0
2016-Jun-21 08:33N 52°24' E 004°52'0 0.0
2016-Jun-21 07:33N 52°24' E 004°52'0 0.0
2016-Jun-21 06:33N 52°24' E 004°52'0 0.0
2016-Jun-21 04:33N 52°24' E 004°52'0 0.0
2016-Jun-21 03:33N 52°24' E 004°52'0 0.0
2016-Jun-21 02:33N 52°24' E 004°52'0 0.0
2016-Jun-21 01:33N 52°24' E 004°52'0 0.0
2016-Jun-21 00:33N 52°24' E 004°52'0 0.0
2016-Jun-20 23:33N 52°24' E 004°52'0 0.0
2016-Jun-20 22:33N 52°24' E 004°52'0 0.0
2016-Jun-20 21:33N 52°24' E 004°52'0 0.0
2016-Jun-20 20:33N 52°24' E 004°52'0 0.0
2016-Jun-20 19:33N 52°24' E 004°52'0 0.0
2016-Jun-20 18:33N 52°24' E 004°52'0 0.0
2016-Jun-20 17:33N 52°24' E 004°52'0 0.0
2016-Jun-20 16:33N 52°24' E 004°52'0 0.0
2016-Jun-20 15:33N 52°24' E 004°52'0 0.0
2016-Jun-20 14:33N 52°24' E 004°52'0 0.0
2016-Jun-20 13:33N 52°24' E 004°52'0 0.0
2016-Jun-20 12:33N 52°24' E 004°52'0 0.0
2016-Jun-20 11:33N 52°24' E 004°52'0 0.0
2016-Jun-20 10:33N 52°24' E 004°52'0 0.0
2016-Jun-20 09:33N 52°24' E 004°52'0 0.1
2016-Jun-20 08:33N 52°24' E 004°52'2 1.9
2016-Jun-20 07:33N 52°23' E 004°54'7 6.8
2016-Jun-20 06:33N 52°18' E 005°01'8 8.1
2016-Jun-20 05:33N 52°10' E 004°60'7 7.2
2016-Jun-20 04:33N 52°03' E 005°06'7 6.3
2016-Jun-20 03:29N 51°59' E 005°15'41 2.7
2016-Jun-19 12:03N 51°48' E 006°19'13 8.4
2016-Jun-19 10:33N 51°40' E 006°34'7 7.4
2016-Jun-19 09:33N 51°34' E 006°41'17 7.6
2016-Jun-19 07:18N 51°17' E 006°42'5 6.3
2016-Jun-19 06:33N 51°12' E 006°44'17 1.4
2016-Jun-18 18:15N 50°58' E 006°59'7 7.5
2016-Jun-18 17:22N 50°51' E 007°00'8 9.7
2016-Jun-18 16:33N 50°44' E 007°07'  
Track history (hours):
 
Tides and Currents Weather Stations Pressure Air Temp Water Temp Dewpoint Dewpoint Depression Visibility Wind Speed Wind Dir Waves Ship Positions

Audrey

Last reported at 2016-Jun-26 00:33 UTC. Time now 2016-Jun-26 01:04 UTC.
Position N 51°55' E 004°30'.

Length 85 m; draft 2.4 m.

Type: Wing in ground effect craft. MMSI: 244660106.

Date/timePositionNaut miles runAvg speedWind from/ knotsBaromVisibWave heightAir tempDewpointWater temp
2016-Jun-26 00:33N 51°55' E 004°30'0 0.0
2016-Jun-25 23:33N 51°55' E 004°30'0 0.0
2016-Jun-25 22:32N 51°55' E 004°30'0 0.0
2016-Jun-25 21:33N 51°55' E 004°30'0 0.0
2016-Jun-25 20:33N 51°55' E 004°30'0 0.0
2016-Jun-25 19:33N 51°55' E 004°30'0 0.0
2016-Jun-25 18:33N 51°55' E 004°30'0 0.0
2016-Jun-25 17:33N 51°55' E 004°30'0 0.0
2016-Jun-25 16:33N 51°55' E 004°30'0 0.0
2016-Jun-25 15:33N 51°55' E 004°30'0 0.0
2016-Jun-25 14:32N 51°55' E 004°30'0 0.0
2016-Jun-25 13:33N 51°55' E 004°30'0 0.0
2016-Jun-25 12:32N 51°55' E 004°30'0 0.0
2016-Jun-25 11:33N 51°55' E 004°30'0 0.0
2016-Jun-25 10:33N 51°55' E 004°30'0 0.0
2016-Jun-25 09:33N 51°55' E 004°30'0 0.0
2016-Jun-25 08:32N 51°55' E 004°30'0 0.0
2016-Jun-25 07:33N 51°55' E 004°30'0 0.0
2016-Jun-25 06:32N 51°55' E 004°30'2 2.2
2016-Jun-25 05:33N 51°54' E 004°27'6 6.2
2016-Jun-25 04:33N 51°52' E 004°18'8 8.0
2016-Jun-25 03:33N 51°57' E 004°07'1 0.8
2016-Jun-25 02:33N 51°57' E 004°07'0 0.0
2016-Jun-25 01:33N 51°57' E 004°07'0 0.0
2016-Jun-25 00:33N 51°57' E 004°07'0 0.0
2016-Jun-24 23:33N 51°57' E 004°07'0 0.0
2016-Jun-24 22:33N 51°57' E 004°07'0 0.0
2016-Jun-24 21:33N 51°57' E 004°07'0 0.0
2016-Jun-24 20:33N 51°57' E 004°07'0 0.0
2016-Jun-24 19:33N 51°57' E 004°07'0 0.0
2016-Jun-24 18:33N 51°57' E 004°07'0 0.0
2016-Jun-24 17:33N 51°57' E 004°07'0 0.0
2016-Jun-24 16:33N 51°57' E 004°07'0 0.0
2016-Jun-24 15:33N 51°57' E 004°07'0 0.0
2016-Jun-24 14:33N 51°57' E 004°07'3 2.7
2016-Jun-24 13:33N 51°55' E 004°10'6 6.1
2016-Jun-24 12:33N 51°54' E 004°20'7 6.4
2016-Jun-24 11:32N 51°55' E 004°30'0 0.0
2016-Jun-24 10:33N 51°55' E 004°30'0 0.0
2016-Jun-24 09:33N 51°55' E 004°30'0 0.0
2016-Jun-24 08:32N 51°55' E 004°30'0 0.0
2016-Jun-24 07:32N 51°55' E 004°30'0 0.0
2016-Jun-24 04:33N 51°55' E 004°30'0 0.0
2016-Jun-24 03:32N 51°55' E 004°30'0 0.0
2016-Jun-24 02:33N 51°55' E 004°30'0 0.0
2016-Jun-24 01:32N 51°55' E 004°30'0 0.0
2016-Jun-24 00:32N 51°55' E 004°30'0 0.0
2016-Jun-23 23:32N 51°55' E 004°30'0 0.0
2016-Jun-23 22:32N 51°55' E 004°30'0 0.0
2016-Jun-23 21:33N 51°55' E 004°30'0 0.0
2016-Jun-23 20:29N 51°55' E 004°30'0 0.0
2016-Jun-23 19:32N 51°55' E 004°30'0 0.0
2016-Jun-23 18:32N 51°55' E 004°30'0 0.0
2016-Jun-23 17:33N 51°55' E 004°30'0 0.0
2016-Jun-23 16:33N 51°55' E 004°30'0 0.0
2016-Jun-23 15:33N 51°55' E 004°30'2 2.0
2016-Jun-23 14:33N 51°54' E 004°33'7 6.7
2016-Jun-23 13:33N 51°49' E 004°40'0 0.0
2016-Jun-23 12:34N 51°49' E 004°40'0 0.0
2016-Jun-23 11:34N 51°49' E 004°40'0 0.0
2016-Jun-23 10:34N 51°49' E 004°40'4 4.4
2016-Jun-23 09:33N 51°53' E 004°37'9 9.3
2016-Jun-23 08:33N 51°56' E 004°52'8 8.1
2016-Jun-23 07:33N 51°59' E 005°04'11 5.6
2016-Jun-23 05:34N 52°10' E 004°60'8 7.8
2016-Jun-23 04:34N 52°18' E 005°01'7 6.8
2016-Jun-23 03:34N 52°23' E 004°54'2 1.5
2016-Jun-23 02:33N 52°24' E 004°52'0 0.0
2016-Jun-23 01:33N 52°24' E 004°52'0 0.0
2016-Jun-23 00:33N 52°24' E 004°52'0 0.0
2016-Jun-22 23:33N 52°24' E 004°52'0 0.0
2016-Jun-22 22:33N 52°24' E 004°52'0 0.0
2016-Jun-22 21:33N 52°24' E 004°52'0 0.0
2016-Jun-22 20:33N 52°24' E 004°52'0 0.0
2016-Jun-22 19:33N 52°24' E 004°52'0 0.4
2016-Jun-22 18:33N 52°24' E 004°52'0 0.0
2016-Jun-22 17:33N 52°24' E 004°52'0 0.0
2016-Jun-22 16:33N 52°24' E 004°52'0 0.0
2016-Jun-22 15:33N 52°24' E 004°52'0 0.0
2016-Jun-22 14:33N 52°24' E 004°52'0 0.4
2016-Jun-22 13:33N 52°24' E 004°52'0 0.4
2016-Jun-22 12:33N 52°24' E 004°52'0 0.0
2016-Jun-22 11:33N 52°24' E 004°52'0 0.0
2016-Jun-22 10:33N 52°24' E 004°52'0 0.0
2016-Jun-22 09:33N 52°24' E 004°52'0 0.4
2016-Jun-22 08:33N 52°24' E 004°52'0 0.0
2016-Jun-22 07:33N 52°24' E 004°52'0 0.0
2016-Jun-22 06:33N 52°24' E 004°52'0 0.0
2016-Jun-22 05:33N 52°24' E 004°52'0 0.0
2016-Jun-22 04:33N 52°24' E 004°52'0 0.0
2016-Jun-22 03:33N 52°24' E 004°52'0 0.0
2016-Jun-22 02:33N 52°24' E 004°52'0 0.0
2016-Jun-22 01:33N 52°24' E 004°52'0 0.0
2016-Jun-22 00:33N 52°24' E 004°52'0 0.0
2016-Jun-21 23:33N 52°24' E 004°52'0 0.0
2016-Jun-21 22:33N 52°24' E 004°52'0 0.0
2016-Jun-21 21:33N 52°24' E 004°52'0 0.0
2016-Jun-21 20:33N 52°24' E 004°52'0 0.0
2016-Jun-21 19:33N 52°24' E 004°52'0 0.0
2016-Jun-21 18:33N 52°24' E 004°52'0 0.0
2016-Jun-21 17:33N 52°24' E 004°52'0 0.0
2016-Jun-21 16:33N 52°24' E 004°52'0 0.0
2016-Jun-21 15:33N 52°24' E 004°52'0 0.0
2016-Jun-21 14:33N 52°24' E 004°52'0 0.0
2016-Jun-21 13:33N 52°24' E 004°52'0 0.0
2016-Jun-21 12:33N 52°24' E 004°52'0 0.0
2016-Jun-21 11:33N 52°24' E 004°52'0 0.0
2016-Jun-21 10:33N 52°24' E 004°52'0 0.0
2016-Jun-21 09:33N 52°24' E 004°52'0 0.0
2016-Jun-21 08:33N 52°24' E 004°52'0 0.0
2016-Jun-21 07:33N 52°24' E 004°52'0 0.0
2016-Jun-21 06:33N 52°24' E 004°52'0 0.0
2016-Jun-21 04:33N 52°24' E 004°52'0 0.0
2016-Jun-21 03:33N 52°24' E 004°52'0 0.0
2016-Jun-21 02:33N 52°24' E 004°52'0 0.0
2016-Jun-21 01:33N 52°24' E 004°52'0 0.0
2016-Jun-21 00:33N 52°24' E 004°52'0 0.0
2016-Jun-20 23:33N 52°24' E 004°52'0 0.0
2016-Jun-20 22:33N 52°24' E 004°52'0 0.0
2016-Jun-20 21:33N 52°24' E 004°52'0 0.0
2016-Jun-20 20:33N 52°24' E 004°52'0 0.0
2016-Jun-20 19:33N 52°24' E 004°52'0 0.0
2016-Jun-20 18:33N 52°24' E 004°52'0 0.0
2016-Jun-20 17:33N 52°24' E 004°52'0 0.0
2016-Jun-20 16:33N 52°24' E 004°52'0 0.0
2016-Jun-20 15:33N 52°24' E 004°52'0 0.0
2016-Jun-20 14:33N 52°24' E 004°52'0 0.0
2016-Jun-20 13:33N 52°24' E 004°52'0 0.0
2016-Jun-20 12:33N 52°24' E 004°52'0 0.0
2016-Jun-20 11:33N 52°24' E 004°52'0 0.0
2016-Jun-20 10:33N 52°24' E 004°52'0 0.0
2016-Jun-20 09:33N 52°24' E 004°52'0 0.1
2016-Jun-20 08:33N 52°24' E 004°52'2 1.9
2016-Jun-20 07:33N 52°23' E 004°54'7 6.8
2016-Jun-20 06:33N 52°18' E 005°01'8 8.1
2016-Jun-20 05:33N 52°10' E 004°60'7 7.2
2016-Jun-20 04:33N 52°03' E 005°06'7 6.3
2016-Jun-20 03:29N 51°59' E 005°15'41 2.7
2016-Jun-19 12:03N 51°48' E 006°19'13 8.4
2016-Jun-19 10:33N 51°40' E 006°34'7 7.4
2016-Jun-19 09:33N 51°34' E 006°41'17 7.6
2016-Jun-19 07:18N 51°17' E 006°42'5 6.3
2016-Jun-19 06:33N 51°12' E 006°44'17 1.4
2016-Jun-18 18:15N 50°58' E 006°59'7 7.5
2016-Jun-18 17:22N 50°51' E 007°00'8 9.7
2016-Jun-18 16:33N 50°44' E 007°07'  

Dump ship's entire track history